Christopher — ZGBD9 — position and weather

sailwx.info

Track history (hours):
 
Tides and Currents Weather Stations Pressure Air Temp Water Temp Dewpoint Dewpoint Depression Visibility Wind Speed Wind Dir Waves Ship Positions

Christopher

Last reported at 2018-Jul-18 13:14 UTC. Time now 2018-Jul-22 12:44 UTC.
Position N 52°41' W 009°56'.

Type: Sailing vessel. MMSI: 319530000.

Date/timePositionNaut miles runAvg speedWind from/ knotsBaromVisibWave heightAir tempDewpointWater temp
2018-Jul-18 13:14N 52°41' W 009°56'1111.0
2018-Jul-18 12:15N 52°33' W 010°07'310.9
2018-Jul-18 11:59N 52°31' W 010°10'1910.8
2018-Jul-18 10:14N 52°15' W 010°28'310.5
2018-Jul-18 09:58N 52°13' W 010°31'1210.4
2018-Jul-18 08:47N 52°02' W 010°38'1710.8
2018-Jul-18 07:11N 51°45' W 010°30'1011.2
2018-Jul-18 06:16N 51°36' W 010°21'724.5
2018-Jul-18 05:59N 51°32' W 010°12'4 6.9
2018-Jul-18 05:28N 51°31' W 010°07'3 6.1
2018-Jul-18 05:00N 51°30' W 010°03'711.8
2018-Jul-18 04:26N 51°27' W 009°53'3 7.3
2018-Jul-18 04:00N 51°26' W 009°48'510.0
2018-Jul-18 03:30N 51°25' W 009°40'510.0
2018-Jul-18 02:59N 51°25' W 009°32'510.1
2018-Jul-18 02:30N 51°27' W 009°25'2 3.7
2018-Jul-18 01:59N 51°29' W 009°24'0 0.0
2018-Jul-18 01:29N 51°29' W 009°24'0 0.0
2018-Jul-18 00:59N 51°29' W 009°24'0 0.0
2018-Jul-18 00:29N 51°29' W 009°24'0 0.0
2018-Jul-17 23:59N 51°29' W 009°24'0 0.0
2018-Jul-17 23:29N 51°29' W 009°24'0 0.1
2018-Jul-17 22:56N 51°29' W 009°24'0 0.0
2018-Jul-17 22:29N 51°29' W 009°24'0 0.0
2018-Jul-17 21:53N 51°29' W 009°24'0 0.0
2018-Jul-17 21:29N 51°29' W 009°24'0 0.0
2018-Jul-17 20:56N 51°29' W 009°24'0 0.0
2018-Jul-17 20:29N 51°29' W 009°24'0 0.0
2018-Jul-17 19:56N 51°29' W 009°24'0 0.0
2018-Jul-17 19:29N 51°29' W 009°24'0 0.0
2018-Jul-17 18:59N 51°29' W 009°24'0 0.0
2018-Jul-17 18:29N 51°29' W 009°24'0 0.0
2018-Jul-17 17:56N 51°29' W 009°24'1 1.7
2018-Jul-17 17:30N 51°28' W 009°23'5 9.9
2018-Jul-17 16:59N 51°26' W 009°16'5 9.7
2018-Jul-17 16:30N 51°24' W 009°09'510.2
2018-Jul-17 15:59N 51°21' W 009°01'510.5
2018-Jul-17 15:30N 51°19' W 008°54'  
Track history (hours):
 
Tides and Currents Weather Stations Pressure Air Temp Water Temp Dewpoint Dewpoint Depression Visibility Wind Speed Wind Dir Waves Ship Positions

Christopher

Last reported at 2018-Jul-18 13:14 UTC. Time now 2018-Jul-22 12:44 UTC.
Position N 52°41' W 009°56'.

Type: Sailing vessel. MMSI: 319530000.

Date/timePositionNaut miles runAvg speedWind from/ knotsBaromVisibWave heightAir tempDewpointWater temp
2018-Jul-18 13:14N 52°41' W 009°56'1111.0
2018-Jul-18 12:15N 52°33' W 010°07'310.9
2018-Jul-18 11:59N 52°31' W 010°10'1910.8
2018-Jul-18 10:14N 52°15' W 010°28'310.5
2018-Jul-18 09:58N 52°13' W 010°31'1210.4
2018-Jul-18 08:47N 52°02' W 010°38'1710.8
2018-Jul-18 07:11N 51°45' W 010°30'1011.2
2018-Jul-18 06:16N 51°36' W 010°21'724.5
2018-Jul-18 05:59N 51°32' W 010°12'4 6.9
2018-Jul-18 05:28N 51°31' W 010°07'3 6.1
2018-Jul-18 05:00N 51°30' W 010°03'711.8
2018-Jul-18 04:26N 51°27' W 009°53'3 7.3
2018-Jul-18 04:00N 51°26' W 009°48'510.0
2018-Jul-18 03:30N 51°25' W 009°40'510.0
2018-Jul-18 02:59N 51°25' W 009°32'510.1
2018-Jul-18 02:30N 51°27' W 009°25'2 3.7
2018-Jul-18 01:59N 51°29' W 009°24'0 0.0
2018-Jul-18 01:29N 51°29' W 009°24'0 0.0
2018-Jul-18 00:59N 51°29' W 009°24'0 0.0
2018-Jul-18 00:29N 51°29' W 009°24'0 0.0
2018-Jul-17 23:59N 51°29' W 009°24'0 0.0
2018-Jul-17 23:29N 51°29' W 009°24'0 0.1
2018-Jul-17 22:56N 51°29' W 009°24'0 0.0
2018-Jul-17 22:29N 51°29' W 009°24'0 0.0
2018-Jul-17 21:53N 51°29' W 009°24'0 0.0
2018-Jul-17 21:29N 51°29' W 009°24'0 0.0
2018-Jul-17 20:56N 51°29' W 009°24'0 0.0
2018-Jul-17 20:29N 51°29' W 009°24'0 0.0
2018-Jul-17 19:56N 51°29' W 009°24'0 0.0
2018-Jul-17 19:29N 51°29' W 009°24'0 0.0
2018-Jul-17 18:59N 51°29' W 009°24'0 0.0
2018-Jul-17 18:29N 51°29' W 009°24'0 0.0
2018-Jul-17 17:56N 51°29' W 009°24'1 1.7
2018-Jul-17 17:30N 51°28' W 009°23'5 9.9
2018-Jul-17 16:59N 51°26' W 009°16'5 9.7
2018-Jul-17 16:30N 51°24' W 009°09'510.2
2018-Jul-17 15:59N 51°21' W 009°01'510.5
2018-Jul-17 15:30N 51°19' W 008°54'  

Dump ship's entire track history